sensor_id;sensor_type;location;lat;lon;timestamp;P1;durP1;ratioP1;P2;durP2;ratioP2
33138;SDS011;19501;50.948;5.316;2023-09-08T00:01:34;22.52;;;11.10;;
33138;SDS011;19501;50.948;5.316;2023-09-08T00:04:00;20.55;;;10.30;;
33138;SDS011;19501;50.948;5.316;2023-09-08T00:06:25;21.50;;;10.80;;
33138;SDS011;19501;50.948;5.316;2023-09-08T00:08:51;19.25;;;10.35;;
33138;SDS011;19501;50.948;5.316;2023-09-08T00:11:17;20.92;;;11.43;;
33138;SDS011;19501;50.948;5.316;2023-09-08T00:13:42;22.02;;;11.05;;
33138;SDS011;19501;50.948;5.316;2023-09-08T00:16:08;23.05;;;12.18;;
33138;SDS011;19501;50.948;5.316;2023-09-08T00:18:35;20.42;;;11.45;;
33138;SDS011;19501;50.948;5.316;2023-09-08T00:21:01;21.77;;;11.50;;
33138;SDS011;19501;50.948;5.316;2023-09-08T00:23:26;23.50;;;11.68;;
33138;SDS011;19501;50.948;5.316;2023-09-08T00:25:53;24.25;;;11.85;;
33138;SDS011;19501;50.948;5.316;2023-09-08T00:28:19;18.90;;;10.15;;
33138;SDS011;19501;50.948;5.316;2023-09-08T00:30:44;23.02;;;11.35;;
33138;SDS011;19501;50.948;5.316;2023-09-08T00:33:10;24.13;;;11.55;;
33138;SDS011;19501;50.948;5.316;2023-09-08T00:35:37;21.25;;;9.98;;
33138;SDS011;19501;50.948;5.316;2023-09-08T00:38:03;19.63;;;11.35;;
33138;SDS011;19501;50.948;5.316;2023-09-08T00:40:29;28.05;;;12.02;;
33138;SDS011;19501;50.948;5.316;2023-09-08T00:42:55;22.10;;;11.80;;
33138;SDS011;19501;50.948;5.316;2023-09-08T00:45:20;24.08;;;11.52;;
33138;SDS011;19501;50.948;5.316;2023-09-08T00:47:46;20.23;;;10.93;;
33138;SDS011;19501;50.948;5.316;2023-09-08T00:50:12;20.92;;;10.80;;
33138;SDS011;19501;50.948;5.316;2023-09-08T00:52:37;22.25;;;11.05;;
33138;SDS011;19501;50.948;5.316;2023-09-08T00:55:03;22.42;;;11.50;;
33138;SDS011;19501;50.948;5.316;2023-09-08T00:57:29;21.20;;;11.20;;
33138;SDS011;19501;50.948;5.316;2023-09-08T00:59:56;20.05;;;11.02;;
33138;SDS011;19501;50.948;5.316;2023-09-08T01:02:22;22.15;;;10.85;;
33138;SDS011;19501;50.948;5.316;2023-09-08T01:04:48;23.20;;;11.90;;
33138;SDS011;19501;50.948;5.316;2023-09-08T01:07:14;20.75;;;11.43;;
33138;SDS011;19501;50.948;5.316;2023-09-08T01:09:40;22.80;;;10.65;;
33138;SDS011;19501;50.948;5.316;2023-09-08T01:12:07;19.95;;;11.20;;
33138;SDS011;19501;50.948;5.316;2023-09-08T01:14:33;23.67;;;11.27;;
33138;SDS011;19501;50.948;5.316;2023-09-08T01:17:01;23.80;;;12.00;;
33138;SDS011;19501;50.948;5.316;2023-09-08T01:19:26;21.00;;;11.30;;
33138;SDS011;19501;50.948;5.316;2023-09-08T01:22:02;21.33;;;10.60;;
33138;SDS011;19501;50.948;5.316;2023-09-08T01:27:27;22.77;;;12.48;;
33138;SDS011;19501;50.948;5.316;2023-09-08T01:29:57;21.55;;;11.13;;
33138;SDS011;19501;50.948;5.316;2023-09-08T01:32:24;23.65;;;12.40;;
33138;SDS011;19501;50.948;5.316;2023-09-08T01:34:50;21.73;;;10.68;;
33138;SDS011;19501;50.948;5.316;2023-09-08T01:37:22;24.98;;;12.65;;
33138;SDS011;19501;50.948;5.316;2023-09-08T01:39:48;25.33;;;12.50;;
33138;SDS011;19501;50.948;5.316;2023-09-08T01:42:13;21.52;;;12.00;;
33138;SDS011;19501;50.948;5.316;2023-09-08T01:44:41;22.67;;;11.60;;
33138;SDS011;19501;50.948;5.316;2023-09-08T01:47:07;20.83;;;11.02;;
33138;SDS011;19501;50.948;5.316;2023-09-08T01:49:33;22.13;;;12.00;;
33138;SDS011;19501;50.948;5.316;2023-09-08T01:51:58;22.23;;;11.30;;
33138;SDS011;19501;50.948;5.316;2023-09-08T01:54:24;21.48;;;11.23;;
33138;SDS011;19501;50.948;5.316;2023-09-08T01:56:50;24.48;;;11.95;;
33138;SDS011;19501;50.948;5.316;2023-09-08T01:59:16;25.92;;;12.63;;
33138;SDS011;19501;50.948;5.316;2023-09-08T02:01:42;24.48;;;12.25;;
33138;SDS011;19501;50.948;5.316;2023-09-08T02:04:07;24.98;;;12.55;;
33138;SDS011;19501;50.948;5.316;2023-09-08T02:06:33;21.25;;;11.73;;
33138;SDS011;19501;50.948;5.316;2023-09-08T02:08:59;23.20;;;11.90;;
33138;SDS011;19501;50.948;5.316;2023-09-08T02:11:24;20.30;;;11.30;;
33138;SDS011;19501;50.948;5.316;2023-09-08T02:13:50;21.92;;;11.35;;
33138;SDS011;19501;50.948;5.316;2023-09-08T02:16:16;24.52;;;11.77;;
33138;SDS011;19501;50.948;5.316;2023-09-08T02:18:43;21.55;;;11.15;;
33138;SDS011;19501;50.948;5.316;2023-09-08T02:21:09;21.98;;;11.70;;
33138;SDS011;19501;50.948;5.316;2023-09-08T02:23:35;24.55;;;12.32;;
33138;SDS011;19501;50.948;5.316;2023-09-08T02:26:03;21.02;;;10.52;;
33138;SDS011;19501;50.948;5.316;2023-09-08T02:28:29;21.40;;;10.77;;
33138;SDS011;19501;50.948;5.316;2023-09-08T02:30:54;24.13;;;12.38;;
33138;SDS011;19501;50.948;5.316;2023-09-08T02:33:20;26.50;;;12.63;;
33138;SDS011;19501;50.948;5.316;2023-09-08T02:35:46;24.08;;;12.80;;
33138;SDS011;19501;50.948;5.316;2023-09-08T02:38:11;22.23;;;12.57;;
33138;SDS011;19501;50.948;5.316;2023-09-08T02:40:37;24.95;;;12.10;;
33138;SDS011;19501;50.948;5.316;2023-09-08T02:43:03;24.15;;;12.05;;
33138;SDS011;19501;50.948;5.316;2023-09-08T02:45:29;21.60;;;10.85;;
33138;SDS011;19501;50.948;5.316;2023-09-08T02:47:55;21.70;;;11.32;;
33138;SDS011;19501;50.948;5.316;2023-09-08T02:50:21;19.88;;;11.20;;
33138;SDS011;19501;50.948;5.316;2023-09-08T02:52:47;20.77;;;11.35;;
33138;SDS011;19501;50.948;5.316;2023-09-08T02:55:12;20.85;;;10.45;;
33138;SDS011;19501;50.948;5.316;2023-09-08T02:57:39;23.92;;;12.07;;
33138;SDS011;19501;50.948;5.316;2023-09-08T03:00:05;20.88;;;11.20;;
33138;SDS011;19501;50.948;5.316;2023-09-08T03:02:31;23.10;;;12.05;;
33138;SDS011;19501;50.948;5.316;2023-09-08T03:04:57;23.05;;;12.55;;
33138;SDS011;19501;50.948;5.316;2023-09-08T03:07:23;22.58;;;11.30;;
33138;SDS011;19501;50.948;5.316;2023-09-08T03:09:48;20.90;;;11.40;;
33138;SDS011;19501;50.948;5.316;2023-09-08T03:12:14;19.38;;;10.50;;
33138;SDS011;19501;50.948;5.316;2023-09-08T03:14:39;26.63;;;11.55;;
33138;SDS011;19501;50.948;5.316;2023-09-08T03:17:05;25.90;;;11.20;;
33138;SDS011;19501;50.948;5.316;2023-09-08T03:19:31;22.92;;;11.65;;
33138;SDS011;19501;50.948;5.316;2023-09-08T03:21:57;23.67;;;12.13;;
33138;SDS011;19501;50.948;5.316;2023-09-08T03:24:22;22.88;;;11.23;;
33138;SDS011;19501;50.948;5.316;2023-09-08T03:26:48;21.92;;;11.32;;
33138;SDS011;19501;50.948;5.316;2023-09-08T03:29:13;20.92;;;11.00;;
33138;SDS011;19501;50.948;5.316;2023-09-08T03:31:39;23.08;;;11.13;;
33138;SDS011;19501;50.948;5.316;2023-09-08T03:34:05;24.23;;;11.63;;
33138;SDS011;19501;50.948;5.316;2023-09-08T03:36:31;21.05;;;11.10;;
33138;SDS011;19501;50.948;5.316;2023-09-08T03:39:00;20.60;;;10.80;;
33138;SDS011;19501;50.948;5.316;2023-09-08T03:41:27;21.02;;;11.63;;
33138;SDS011;19501;50.948;5.316;2023-09-08T03:43:52;23.38;;;11.65;;
33138;SDS011;19501;50.948;5.316;2023-09-08T03:46:18;22.60;;;11.65;;
33138;SDS011;19501;50.948;5.316;2023-09-08T03:48:44;24.65;;;12.10;;
33138;SDS011;19501;50.948;5.316;2023-09-08T03:51:10;21.42;;;11.70;;
33138;SDS011;19501;50.948;5.316;2023-09-08T03:53:35;21.63;;;11.68;;
33138;SDS011;19501;50.948;5.316;2023-09-08T03:56:03;24.85;;;11.75;;
33138;SDS011;19501;50.948;5.316;2023-09-08T03:58:29;21.65;;;12.20;;
33138;SDS011;19501;50.948;5.316;2023-09-08T04:00:54;22.02;;;11.30;;
33138;SDS011;19501;50.948;5.316;2023-09-08T04:03:20;25.58;;;12.45;;
33138;SDS011;19501;50.948;5.316;2023-09-08T04:05:46;22.88;;;12.68;;
33138;SDS011;19501;50.948;5.316;2023-09-08T04:08:11;24.98;;;11.80;;
33138;SDS011;19501;50.948;5.316;2023-09-08T04:10:39;22.20;;;12.90;;
33138;SDS011;19501;50.948;5.316;2023-09-08T04:13:05;24.98;;;13.23;;
33138;SDS011;19501;50.948;5.316;2023-09-08T04:15:31;24.80;;;13.00;;
33138;SDS011;19501;50.948;5.316;2023-09-08T04:17:56;23.20;;;13.07;;
33138;SDS011;19501;50.948;5.316;2023-09-08T04:20:22;22.80;;;11.70;;
33138;SDS011;19501;50.948;5.316;2023-09-08T04:22:48;22.77;;;12.43;;
33138;SDS011;19501;50.948;5.316;2023-09-08T04:25:14;25.20;;;13.88;;
33138;SDS011;19501;50.948;5.316;2023-09-08T04:27:39;20.83;;;11.20;;
33138;SDS011;19501;50.948;5.316;2023-09-08T04:30:09;24.83;;;12.23;;
33138;SDS011;19501;50.948;5.316;2023-09-08T04:32:35;24.40;;;10.50;;
33138;SDS011;19501;50.948;5.316;2023-09-08T04:35:02;22.90;;;13.43;;
33138;SDS011;19501;50.948;5.316;2023-09-08T04:37:28;27.95;;;14.55;;
33138;SDS011;19501;50.948;5.316;2023-09-08T04:39:55;29.83;;;14.85;;
33138;SDS011;19501;50.948;5.316;2023-09-08T04:42:21;27.75;;;15.50;;
33138;SDS011;19501;50.948;5.316;2023-09-08T04:44:48;25.67;;;14.35;;
33138;SDS011;19501;50.948;5.316;2023-09-08T04:47:14;26.77;;;14.57;;
33138;SDS011;19501;50.948;5.316;2023-09-08T04:49:39;26.15;;;14.80;;
33138;SDS011;19501;50.948;5.316;2023-09-08T04:52:05;21.60;;;12.13;;
33138;SDS011;19501;50.948;5.316;2023-09-08T04:54:31;28.08;;;15.18;;
33138;SDS011;19501;50.948;5.316;2023-09-08T04:56:56;25.58;;;14.75;;
33138;SDS011;19501;50.948;5.316;2023-09-08T04:59:22;24.40;;;14.07;;
33138;SDS011;19501;50.948;5.316;2023-09-08T05:01:48;24.55;;;14.02;;
33138;SDS011;19501;50.948;5.316;2023-09-08T05:04:16;28.40;;;14.63;;
33138;SDS011;19501;50.948;5.316;2023-09-08T05:06:42;30.95;;;15.77;;
33138;SDS011;19501;50.948;5.316;2023-09-08T05:09:08;26.92;;;16.85;;
33138;SDS011;19501;50.948;5.316;2023-09-08T05:11:33;30.48;;;16.88;;
33138;SDS011;19501;50.948;5.316;2023-09-08T05:13:59;30.60;;;16.52;;
33138;SDS011;19501;50.948;5.316;2023-09-08T05:16:25;31.67;;;17.63;;
33138;SDS011;19501;50.948;5.316;2023-09-08T05:19:02;28.98;;;16.73;;
33138;SDS011;19501;50.948;5.316;2023-09-08T05:21:28;27.83;;;16.33;;
33138;SDS011;19501;50.948;5.316;2023-09-08T05:23:54;27.17;;;16.45;;
33138;SDS011;19501;50.948;5.316;2023-09-08T05:26:20;38.17;;;17.02;;
33138;SDS011;19501;50.948;5.316;2023-09-08T05:28:48;29.20;;;15.50;;
33138;SDS011;19501;50.948;5.316;2023-09-08T05:31:16;30.90;;;16.52;;
33138;SDS011;19501;50.948;5.316;2023-09-08T05:33:41;31.27;;;16.75;;
33138;SDS011;19501;50.948;5.316;2023-09-08T05:36:07;30.27;;;17.00;;
33138;SDS011;19501;50.948;5.316;2023-09-08T05:38:35;29.92;;;16.08;;
33138;SDS011;19501;50.948;5.316;2023-09-08T05:41:00;31.73;;;17.90;;
33138;SDS011;19501;50.948;5.316;2023-09-08T05:43:27;29.20;;;16.45;;
33138;SDS011;19501;50.948;5.316;2023-09-08T05:45:53;28.45;;;15.63;;
33138;SDS011;19501;50.948;5.316;2023-09-08T05:48:19;26.92;;;15.00;;
33138;SDS011;19501;50.948;5.316;2023-09-08T05:50:44;31.10;;;16.75;;
33138;SDS011;19501;50.948;5.316;2023-09-08T05:53:10;26.10;;;14.02;;
33138;SDS011;19501;50.948;5.316;2023-09-08T05:55:36;34.25;;;15.55;;
33138;SDS011;19501;50.948;5.316;2023-09-08T05:58:01;31.88;;;16.17;;
33138;SDS011;19501;50.948;5.316;2023-09-08T06:00:27;30.73;;;16.35;;
33138;SDS011;19501;50.948;5.316;2023-09-08T06:02:53;29.13;;;16.02;;
33138;SDS011;19501;50.948;5.316;2023-09-08T06:05:18;27.73;;;15.05;;
33138;SDS011;19501;50.948;5.316;2023-09-08T06:07:44;27.15;;;16.02;;
33138;SDS011;19501;50.948;5.316;2023-09-08T06:10:10;31.02;;;16.10;;
33138;SDS011;19501;50.948;5.316;2023-09-08T06:12:35;28.90;;;15.63;;
33138;SDS011;19501;50.948;5.316;2023-09-08T06:15:04;32.67;;;17.52;;
33138;SDS011;19501;50.948;5.316;2023-09-08T06:17:30;30.27;;;16.25;;
33138;SDS011;19501;50.948;5.316;2023-09-08T06:19:56;30.25;;;16.23;;
33138;SDS011;19501;50.948;5.316;2023-09-08T06:22:22;27.85;;;16.60;;
33138;SDS011;19501;50.948;5.316;2023-09-08T06:24:47;29.00;;;16.02;;
33138;SDS011;19501;50.948;5.316;2023-09-08T06:27:16;29.30;;;16.08;;
33138;SDS011;19501;50.948;5.316;2023-09-08T06:29:42;32.30;;;17.10;;
33138;SDS011;19501;50.948;5.316;2023-09-08T06:32:08;29.05;;;16.52;;
33138;SDS011;19501;50.948;5.316;2023-09-08T06:34:35;32.85;;;16.67;;
33138;SDS011;19501;50.948;5.316;2023-09-08T06:37:01;32.50;;;16.25;;
33138;SDS011;19501;50.948;5.316;2023-09-08T06:39:27;32.08;;;16.08;;
33138;SDS011;19501;50.948;5.316;2023-09-08T06:41:55;29.13;;;16.27;;
33138;SDS011;19501;50.948;5.316;2023-09-08T06:44:21;25.75;;;14.95;;
33138;SDS011;19501;50.948;5.316;2023-09-08T06:46:47;30.63;;;15.77;;
33138;SDS011;19501;50.948;5.316;2023-09-08T06:49:12;27.65;;;14.95;;
33138;SDS011;19501;50.948;5.316;2023-09-08T06:51:38;35.65;;;16.75;;
33138;SDS011;19501;50.948;5.316;2023-09-08T06:54:06;27.65;;;15.23;;
33138;SDS011;19501;50.948;5.316;2023-09-08T06:56:32;26.13;;;14.43;;
33138;SDS011;19501;50.948;5.316;2023-09-08T06:58:57;26.00;;;14.68;;
33138;SDS011;19501;50.948;5.316;2023-09-08T07:01:23;28.95;;;15.73;;
33138;SDS011;19501;50.948;5.316;2023-09-08T07:03:49;24.55;;;13.95;;
33138;SDS011;19501;50.948;5.316;2023-09-08T07:06:15;25.90;;;15.77;;
33138;SDS011;19501;50.948;5.316;2023-09-08T07:08:41;28.25;;;14.88;;
33138;SDS011;19501;50.948;5.316;2023-09-08T07:11:07;25.40;;;14.95;;
33138;SDS011;19501;50.948;5.316;2023-09-08T07:13:33;26.35;;;15.50;;
33138;SDS011;19501;50.948;5.316;2023-09-08T07:15:59;26.73;;;14.13;;
33138;SDS011;19501;50.948;5.316;2023-09-08T07:18:25;31.52;;;15.15;;
33138;SDS011;19501;50.948;5.316;2023-09-08T07:20:50;35.30;;;13.85;;
33138;SDS011;19501;50.948;5.316;2023-09-08T07:23:16;24.98;;;14.00;;
33138;SDS011;19501;50.948;5.316;2023-09-08T07:25:48;26.02;;;14.63;;
33138;SDS011;19501;50.948;5.316;2023-09-08T07:28:14;24.30;;;12.90;;
33138;SDS011;19501;50.948;5.316;2023-09-08T07:30:41;22.80;;;13.45;;
33138;SDS011;19501;50.948;5.316;2023-09-08T07:33:07;25.52;;;13.75;;
33138;SDS011;19501;50.948;5.316;2023-09-08T07:35:32;26.13;;;13.88;;
33138;SDS011;19501;50.948;5.316;2023-09-08T07:38:02;26.75;;;13.77;;
33138;SDS011;19501;50.948;5.316;2023-09-08T07:40:28;26.65;;;13.30;;
33138;SDS011;19501;50.948;5.316;2023-09-08T07:42:53;24.98;;;14.10;;
33138;SDS011;19501;50.948;5.316;2023-09-08T07:45:19;23.30;;;12.82;;
33138;SDS011;19501;50.948;5.316;2023-09-08T07:47:44;27.42;;;13.48;;
33138;SDS011;19501;50.948;5.316;2023-09-08T07:52:47;22.63;;;12.90;;
33138;SDS011;19501;50.948;5.316;2023-09-08T07:55:14;27.58;;;13.80;;
33138;SDS011;19501;50.948;5.316;2023-09-08T07:57:44;23.85;;;13.32;;
33138;SDS011;19501;50.948;5.316;2023-09-08T08:00:13;25.45;;;13.20;;
33138;SDS011;19501;50.948;5.316;2023-09-08T08:02:41;26.27;;;14.07;;
33138;SDS011;19501;50.948;5.316;2023-09-08T08:05:09;27.95;;;13.57;;
33138;SDS011;19501;50.948;5.316;2023-09-08T08:07:35;24.70;;;12.50;;
33138;SDS011;19501;50.948;5.316;2023-09-08T08:10:00;27.35;;;12.50;;
33138;SDS011;19501;50.948;5.316;2023-09-08T08:12:26;27.08;;;12.95;;
33138;SDS011;19501;50.948;5.316;2023-09-08T08:14:52;23.25;;;13.00;;
33138;SDS011;19501;50.948;5.316;2023-09-08T08:17:18;21.83;;;12.10;;
33138;SDS011;19501;50.948;5.316;2023-09-08T08:19:44;25.05;;;12.20;;
33138;SDS011;19501;50.948;5.316;2023-09-08T08:22:10;24.65;;;11.45;;
33138;SDS011;19501;50.948;5.316;2023-09-08T08:24:36;22.48;;;11.13;;
33138;SDS011;19501;50.948;5.316;2023-09-08T08:27:02;20.08;;;10.50;;
33138;SDS011;19501;50.948;5.316;2023-09-08T08:29:28;23.58;;;10.75;;
33138;SDS011;19501;50.948;5.316;2023-09-08T08:31:54;19.23;;;10.48;;
33138;SDS011;19501;50.948;5.316;2023-09-08T08:34:20;23.52;;;11.50;;
33138;SDS011;19501;50.948;5.316;2023-09-08T08:36:46;21.08;;;11.30;;
33138;SDS011;19501;50.948;5.316;2023-09-08T08:39:12;23.02;;;11.70;;
33138;SDS011;19501;50.948;5.316;2023-09-08T08:41:40;22.65;;;11.00;;
33138;SDS011;19501;50.948;5.316;2023-09-08T08:44:09;22.52;;;11.43;;
33138;SDS011;19501;50.948;5.316;2023-09-08T08:46:38;20.30;;;11.25;;
33138;SDS011;19501;50.948;5.316;2023-09-08T08:49:07;23.90;;;11.10;;
33138;SDS011;19501;50.948;5.316;2023-09-08T08:51:36;21.15;;;11.15;;
33138;SDS011;19501;50.948;5.316;2023-09-08T08:54:03;21.67;;;12.13;;
33138;SDS011;19501;50.948;5.316;2023-09-08T08:56:30;25.27;;;12.60;;
33138;SDS011;19501;50.948;5.316;2023-09-08T08:58:57;29.33;;;13.00;;
33138;SDS011;19501;50.948;5.316;2023-09-08T09:01:27;24.23;;;11.43;;
33138;SDS011;19501;50.948;5.316;2023-09-08T09:03:54;28.52;;;13.57;;
33138;SDS011;19501;50.948;5.316;2023-09-08T09:06:21;21.60;;;11.40;;
33138;SDS011;19501;50.948;5.316;2023-09-08T09:08:47;24.98;;;11.98;;
33138;SDS011;19501;50.948;5.316;2023-09-08T09:11:12;21.88;;;12.02;;
33138;SDS011;19501;50.948;5.316;2023-09-08T09:13:40;26.50;;;12.60;;
33138;SDS011;19501;50.948;5.316;2023-09-08T09:16:06;23.25;;;12.10;;
33138;SDS011;19501;50.948;5.316;2023-09-08T09:18:51;22.33;;;11.23;;
33138;SDS011;19501;50.948;5.316;2023-09-08T09:21:18;20.60;;;11.68;;
33138;SDS011;19501;50.948;5.316;2023-09-08T09:23:43;24.38;;;12.65;;
33138;SDS011;19501;50.948;5.316;2023-09-08T09:26:09;20.88;;;12.05;;
33138;SDS011;19501;50.948;5.316;2023-09-08T09:28:47;20.25;;;11.77;;
33138;SDS011;19501;50.948;5.316;2023-09-08T09:31:13;31.50;;;12.70;;
33138;SDS011;19501;50.948;5.316;2023-09-08T09:33:39;21.25;;;11.73;;
33138;SDS011;19501;50.948;5.316;2023-09-08T09:36:07;20.25;;;11.77;;
33138;SDS011;19501;50.948;5.316;2023-09-08T09:38:44;20.10;;;10.90;;
33138;SDS011;19501;50.948;5.316;2023-09-08T09:41:10;20.20;;;11.65;;
33138;SDS011;19501;50.948;5.316;2023-09-08T09:43:36;21.83;;;12.32;;
33138;SDS011;19501;50.948;5.316;2023-09-08T09:46:02;21.75;;;11.23;;
33138;SDS011;19501;50.948;5.316;2023-09-08T09:48:27;20.60;;;11.50;;
33138;SDS011;19501;50.948;5.316;2023-09-08T09:50:53;22.95;;;12.48;;
33138;SDS011;19501;50.948;5.316;2023-09-08T09:53:20;22.63;;;12.02;;
33138;SDS011;19501;50.948;5.316;2023-09-08T09:55:46;21.65;;;10.98;;
33138;SDS011;19501;50.948;5.316;2023-09-08T09:58:12;21.95;;;11.55;;
33138;SDS011;19501;50.948;5.316;2023-09-08T10:00:39;20.23;;;11.65;;
33138;SDS011;19501;50.948;5.316;2023-09-08T10:03:12;21.80;;;12.05;;
33138;SDS011;19501;50.948;5.316;2023-09-08T10:05:39;20.95;;;11.40;;
33138;SDS011;19501;50.948;5.316;2023-09-08T10:08:04;21.15;;;11.80;;
33138;SDS011;19501;50.948;5.316;2023-09-08T10:10:31;19.60;;;11.52;;
33138;SDS011;19501;50.948;5.316;2023-09-08T10:13:02;21.50;;;12.25;;
33138;SDS011;19501;50.948;5.316;2023-09-08T10:15:30;21.92;;;11.15;;
33138;SDS011;19501;50.948;5.316;2023-09-08T10:17:59;21.15;;;10.48;;
33138;SDS011;19501;50.948;5.316;2023-09-08T10:20:29;21.33;;;10.98;;
33138;SDS011;19501;50.948;5.316;2023-09-08T10:23:04;25.23;;;11.73;;
33138;SDS011;19501;50.948;5.316;2023-09-08T10:25:34;24.52;;;12.48;;
33138;SDS011;19501;50.948;5.316;2023-09-08T10:28:03;21.35;;;11.05;;
33138;SDS011;19501;50.948;5.316;2023-09-08T10:30:29;19.23;;;10.93;;
33138;SDS011;19501;50.948;5.316;2023-09-08T10:32:56;21.83;;;10.82;;
33138;SDS011;19501;50.948;5.316;2023-09-08T10:35:22;23.60;;;11.25;;
33138;SDS011;19501;50.948;5.316;2023-09-08T10:37:48;20.95;;;10.38;;
33138;SDS011;19501;50.948;5.316;2023-09-08T10:40:24;21.58;;;10.82;;
33138;SDS011;19501;50.948;5.316;2023-09-08T10:43:08;22.40;;;11.45;;
33138;SDS011;19501;50.948;5.316;2023-09-08T10:45:34;21.58;;;10.40;;
33138;SDS011;19501;50.948;5.316;2023-09-08T10:48:00;23.08;;;10.25;;
33138;SDS011;19501;50.948;5.316;2023-09-08T10:50:31;22.55;;;10.70;;
33138;SDS011;19501;50.948;5.316;2023-09-08T10:53:16;19.05;;;10.23;;
33138;SDS011;19501;50.948;5.316;2023-09-08T10:55:43;17.27;;;9.63;;
33138;SDS011;19501;50.948;5.316;2023-09-08T10:58:17;22.73;;;10.05;;
33138;SDS011;19501;50.948;5.316;2023-09-08T11:01:02;16.35;;;9.45;;
33138;SDS011;19501;50.948;5.316;2023-09-08T11:08:28;20.33;;;9.20;;
33138;SDS011;19501;50.948;5.316;2023-09-08T11:10:55;19.30;;;9.32;;
33138;SDS011;19501;50.948;5.316;2023-09-08T11:13:20;16.20;;;9.95;;
33138;SDS011;19501;50.948;5.316;2023-09-08T11:15:46;17.73;;;9.75;;
33138;SDS011;19501;50.948;5.316;2023-09-08T11:18:12;17.75;;;9.85;;
33138;SDS011;19501;50.948;5.316;2023-09-08T11:20:38;18.73;;;10.38;;
33138;SDS011;19501;50.948;5.316;2023-09-08T11:23:03;17.55;;;9.90;;
33138;SDS011;19501;50.948;5.316;2023-09-08T11:25:32;16.13;;;9.38;;
33138;SDS011;19501;50.948;5.316;2023-09-08T11:27:59;23.05;;;10.27;;
33138;SDS011;19501;50.948;5.316;2023-09-08T11:30:25;16.08;;;9.27;;
33138;SDS011;19501;50.948;5.316;2023-09-08T11:32:51;18.65;;;9.80;;
33138;SDS011;19501;50.948;5.316;2023-09-08T11:35:17;16.45;;;9.57;;
33138;SDS011;19501;50.948;5.316;2023-09-08T11:37:46;18.20;;;9.50;;
33138;SDS011;19501;50.948;5.316;2023-09-08T11:40:12;17.25;;;9.52;;
33138;SDS011;19501;50.948;5.316;2023-09-08T11:42:42;18.50;;;9.45;;
33138;SDS011;19501;50.948;5.316;2023-09-08T11:45:10;17.02;;;9.27;;
33138;SDS011;19501;50.948;5.316;2023-09-08T11:47:39;16.25;;;9.30;;
33138;SDS011;19501;50.948;5.316;2023-09-08T11:50:09;18.85;;;9.63;;
33138;SDS011;19501;50.948;5.316;2023-09-08T11:52:45;18.63;;;9.80;;
33138;SDS011;19501;50.948;5.316;2023-09-08T11:55:12;16.52;;;8.68;;
33138;SDS011;19501;50.948;5.316;2023-09-08T11:57:38;22.75;;;9.38;;
33138;SDS011;19501;50.948;5.316;2023-09-08T12:00:05;18.75;;;9.13;;
33138;SDS011;19501;50.948;5.316;2023-09-08T12:02:35;16.48;;;9.65;;
33138;SDS011;19501;50.948;5.316;2023-09-08T12:05:02;18.92;;;9.45;;
33138;SDS011;19501;50.948;5.316;2023-09-08T12:07:28;20.67;;;9.73;;
33138;SDS011;19501;50.948;5.316;2023-09-08T12:09:56;17.77;;;9.60;;
33138;SDS011;19501;50.948;5.316;2023-09-08T12:12:24;16.48;;;9.02;;
33138;SDS011;19501;50.948;5.316;2023-09-08T12:14:51;15.30;;;9.07;;
33138;SDS011;19501;50.948;5.316;2023-09-08T12:17:16;14.32;;;8.40;;
33138;SDS011;19501;50.948;5.316;2023-09-08T12:19:43;18.23;;;9.20;;
33138;SDS011;19501;50.948;5.316;2023-09-08T12:22:09;16.52;;;8.70;;
33138;SDS011;19501;50.948;5.316;2023-09-08T12:27:35;21.13;;;9.00;;
33138;SDS011;19501;50.948;5.316;2023-09-08T12:30:02;16.63;;;9.18;;
33138;SDS011;19501;50.948;5.316;2023-09-08T12:32:31;13.85;;;8.45;;
33138;SDS011;19501;50.948;5.316;2023-09-08T12:34:58;16.00;;;8.80;;
33138;SDS011;19501;50.948;5.316;2023-09-08T12:37:26;15.50;;;8.55;;
33138;SDS011;19501;50.948;5.316;2023-09-08T12:39:55;13.68;;;8.43;;
33138;SDS011;19501;50.948;5.316;2023-09-08T12:42:21;16.02;;;8.60;;
33138;SDS011;19501;50.948;5.316;2023-09-08T12:44:50;17.70;;;8.88;;
33138;SDS011;19501;50.948;5.316;2023-09-08T12:47:17;19.30;;;9.65;;
33138;SDS011;19501;50.948;5.316;2023-09-08T12:49:42;15.38;;;8.40;;
33138;SDS011;19501;50.948;5.316;2023-09-08T12:52:10;16.67;;;8.82;;
33138;SDS011;19501;50.948;5.316;2023-09-08T12:54:36;13.85;;;8.38;;
33138;SDS011;19501;50.948;5.316;2023-09-08T12:57:02;18.33;;;9.15;;
33138;SDS011;19501;50.948;5.316;2023-09-08T12:59:28;15.45;;;8.65;;
33138;SDS011;19501;50.948;5.316;2023-09-08T13:01:54;19.67;;;9.00;;
33138;SDS011;19501;50.948;5.316;2023-09-08T13:04:20;17.10;;;8.68;;
33138;SDS011;19501;50.948;5.316;2023-09-08T13:06:47;17.75;;;8.82;;
33138;SDS011;19501;50.948;5.316;2023-09-08T13:09:14;20.15;;;8.73;;
33138;SDS011;19501;50.948;5.316;2023-09-08T13:11:40;16.95;;;8.65;;
33138;SDS011;19501;50.948;5.316;2023-09-08T13:14:06;18.40;;;9.23;;
33138;SDS011;19501;50.948;5.316;2023-09-08T13:16:32;16.00;;;9.02;;
33138;SDS011;19501;50.948;5.316;2023-09-08T13:18:58;17.60;;;8.98;;
33138;SDS011;19501;50.948;5.316;2023-09-08T13:21:24;16.65;;;8.80;;
33138;SDS011;19501;50.948;5.316;2023-09-08T13:23:50;15.35;;;8.80;;
33138;SDS011;19501;50.948;5.316;2023-09-08T13:26:16;17.25;;;8.85;;
33138;SDS011;19501;50.948;5.316;2023-09-08T13:28:42;18.00;;;9.43;;
33138;SDS011;19501;50.948;5.316;2023-09-08T13:31:09;18.23;;;9.95;;
33138;SDS011;19501;50.948;5.316;2023-09-08T13:33:35;20.23;;;9.18;;
33138;SDS011;19501;50.948;5.316;2023-09-08T13:36:01;21.10;;;10.27;;
33138;SDS011;19501;50.948;5.316;2023-09-08T13:38:26;18.60;;;9.57;;
33138;SDS011;19501;50.948;5.316;2023-09-08T13:40:52;16.42;;;8.80;;
33138;SDS011;19501;50.948;5.316;2023-09-08T13:43:18;21.42;;;9.50;;
33138;SDS011;19501;50.948;5.316;2023-09-08T13:45:44;16.73;;;8.68;;
33138;SDS011;19501;50.948;5.316;2023-09-08T13:48:09;18.63;;;9.20;;
33138;SDS011;19501;50.948;5.316;2023-09-08T13:50:37;19.20;;;9.70;;
33138;SDS011;19501;50.948;5.316;2023-09-08T13:53:03;16.33;;;9.60;;
33138;SDS011;19501;50.948;5.316;2023-09-08T13:55:29;17.00;;;8.68;;
33138;SDS011;19501;50.948;5.316;2023-09-08T13:57:54;19.20;;;9.60;;
33138;SDS011;19501;50.948;5.316;2023-09-08T14:00:20;17.55;;;8.05;;
33138;SDS011;19501;50.948;5.316;2023-09-08T14:02:45;18.52;;;8.18;;
33138;SDS011;19501;50.948;5.316;2023-09-08T14:05:11;17.73;;;8.65;;
33138;SDS011;19501;50.948;5.316;2023-09-08T14:07:37;19.05;;;8.30;;
33138;SDS011;19501;50.948;5.316;2023-09-08T14:10:03;17.45;;;7.90;;
33138;SDS011;19501;50.948;5.316;2023-09-08T14:12:32;19.38;;;7.40;;
33138;SDS011;19501;50.948;5.316;2023-09-08T14:15:01;16.92;;;8.00;;
33138;SDS011;19501;50.948;5.316;2023-09-08T14:17:27;13.82;;;7.38;;
33138;SDS011;19501;50.948;5.316;2023-09-08T14:19:52;17.85;;;8.13;;
33138;SDS011;19501;50.948;5.316;2023-09-08T14:22:19;29.77;;;9.43;;
33138;SDS011;19501;50.948;5.316;2023-09-08T14:24:47;17.27;;;7.82;;
33138;SDS011;19501;50.948;5.316;2023-09-08T14:27:13;14.50;;;7.72;;
33138;SDS011;19501;50.948;5.316;2023-09-08T14:29:39;17.70;;;8.35;;
33138;SDS011;19501;50.948;5.316;2023-09-08T14:32:04;16.70;;;8.23;;
33138;SDS011;19501;50.948;5.316;2023-09-08T14:34:30;19.00;;;7.93;;